Latest Weather Observations for Cooktown

IDQ60801

Issued at 2:05 am EST Tuesday 29 July 2014 (issued every 30 minutes, with the page automatically refreshed every 10 minutes)

About weather observations | Map of weather stations | Latest weather observations for QLD | Other Formats
Station Details ID: 031209 Name: COOKTOWN AIRPORT Lat: -15.45 Lon: 145.19 Height: 4.8 m
Data from the previous 72 hours. | See also: Recent months at Cooktown
Date/Time
EST
Temp
°C
App
Temp
°C
Dew
Point
Rel
Hum
%
Delta-T
°C
Wind Press
QNH
hPa
Press
MSL
hPa
Rain
since 9 am
mm
Dir
 
Spd
km/h
Gust
km/h
Spd
kts
Gust
kts
29/02:00am 22.2 22.9 18.9 81 2.1 SE 13 24 7 13 1017.5 - 0.2
29/01:30am 22.0 22.7 19.6 86 1.5 SE 15 20 8 11 1017.8 - 0.2
29/01:00am 21.6 23.0 19.6 88 1.3 SE 11 20 6 11 1018.3 - 0.2
29/12:30am 21.8 22.6 19.1 84 1.7 ESE 13 22 7 12 1018.6 - 0.2
29/12:00am 22.2 22.5 19.7 86 1.6 SE 17 24 9 13 1018.8 1018.9 0.2
 
Date/Time
EST
Temp
°C
App
Temp
°C
Dew
Point
Rel
Hum
%
Delta-T
°C
Wind Press
QNH
hPa
Press
MSL
hPa
Rain
since 9 am
mm
Dir
 
Spd
km/h
Gust
km/h
Spd
kts
Gust
kts
28/11:30pm 22.0 23.4 19.6 86 1.5 SE 11 17 6 9 1019.0 - 0.2
28/11:00pm 22.0 23.4 19.5 86 1.6 SE 11 17 6 9 1018.9 - 0.2
28/10:30pm 22.1 23.6 19.7 86 1.5 SE 11 19 6 10 1018.9 - 0.2
28/10:19pm 22.2 22.9 19.7 86 1.6 SE 15 24 8 13 1018.9 - 0.2
28/10:00pm 22.3 23.9 20.0 87 1.5 SE 11 17 6 9 1019.0 - 0.2
28/09:49pm 22.3 23.6 20.1 87 1.4 ESE 13 17 7 9 1019.1 - 0.2
28/09:30pm 22.1 24.2 20.1 88 1.3 SE 9 17 5 9 1019.0 - 0.2
28/09:00pm 22.4 23.8 19.6 84 1.8 SE 11 17 6 9 1018.9 1018.8 0.2
28/08:30pm 22.5 23.4 19.2 81 2.1 SE 13 20 7 11 1018.7 - 0.0
28/08:00pm 22.4 23.7 19.2 82 2.0 SE 11 15 6 8 1018.5 - 0.0
28/07:30pm 22.4 23.7 19.2 82 2.0 SE 11 20 6 11 1018.3 - 0.0
28/07:00pm 22.5 23.4 19.2 81 2.1 SE 13 20 7 11 1018.1 - 0.0
28/06:30pm 23.0 23.8 19.1 78 2.5 SE 13 20 7 11 1017.7 - 0.0
28/06:00pm 23.5 23.2 18.2 72 3.3 ESE 17 24 9 13 1017.4 1017.4 0.0
28/05:30pm 23.7 22.7 17.9 70 3.6 SE 20 35 11 19 1017.2 - 0.0
28/05:00pm 24.2 23.4 18.0 68 3.9 ESE 19 28 10 15 1017.0 - 0.0
28/04:30pm 24.5 22.9 17.4 64 4.4 SE 22 35 12 19 1017.0 - 0.0
28/04:00pm 24.8 23.5 17.2 62 4.7 SE 20 41 11 22 1016.9 - 0.0
28/03:30pm 25.7 24.2 17.7 61 5.0 SE 22 39 12 21 1017.0 - 0.0
28/03:00pm 26.0 23.3 16.6 56 5.8 ESE 26 33 14 18 1017.0 1017.0 0.0
28/02:30pm 26.1 23.1 15.9 53 6.2 ESE 26 37 14 20 1017.2 - 0.0
28/02:02pm 25.7 22.2 15.6 53 6.1 ESE 28 46 15 25 1017.4 - 0.0
28/02:00pm 26.1 22.9 15.2 51 6.6 ESE 26 46 14 25 1017.4 - 0.0
28/01:36pm 26.5 23.1 15.7 51 6.6 ESE 28 46 15 25 1017.7 - 0.0
28/01:30pm 26.4 23.3 15.5 51 6.6 SE 26 39 14 21 1017.7 - 0.0
28/01:00pm 25.9 23.5 16.3 55 5.9 ESE 24 41 13 22 1018.1 - 0.0
28/12:41pm 26.7 23.7 16.7 54 6.2 ESE 28 46 15 25 1018.3 - 0.0
28/12:30pm 25.9 23.4 16.1 54 6.0 ESE 24 39 13 21 1018.4 - 0.0
28/12:00pm 26.2 23.1 15.5 51 6.5 SE 26 39 14 21 1018.8 1018.9 0.0
28/11:30am 26.9 24.7 16.0 51 6.7 ESE 22 35 12 19 1019.2 - 0.0
28/11:00am 25.9 21.9 16.7 57 5.7 ESE 33 52 18 28 1019.5 - 0.0
28/10:52am 25.9 22.0 16.5 56 5.8 ESE 32 52 17 28 1019.5 - 0.0
28/10:30am 25.9 22.0 17.0 58 5.5 E 33 46 18 25 1019.6 - 0.0
28/10:00am 26.0 22.6 16.8 57 5.7 ESE 30 50 16 27 1019.6 - 0.0
28/09:39am 25.4 22.0 15.9 55 5.8 ESE 28 50 15 27 1019.5 - 0.0
28/09:30am 25.3 21.6 16.1 56 5.6 E 30 44 16 24 1019.6 - 0.0
28/09:00am 24.8 22.6 16.8 61 4.9 ESE 24 43 13 23 1019.4 1019.4 0.0
28/08:30am 24.2 21.4 16.3 61 4.8 ESE 26 43 14 23 1019.2 - 0.0
28/08:00am 23.8 20.9 16.2 62 4.6 ESE 26 41 14 22 1018.9 - 0.0
28/07:30am 23.4 20.7 16.7 66 4.1 ESE 26 43 14 23 1018.5 - 0.0
28/07:00am 22.6 20.0 16.9 70 3.5 ESE 26 41 14 22 1018.1 - 0.0
28/06:30am 22.4 20.4 16.5 69 3.6 ESE 22 37 12 20 1017.7 - 0.0
28/06:00am 22.5 20.0 16.2 67 3.8 ESE 24 33 13 18 1017.4 1017.4 0.0
28/05:30am 22.6 20.2 16.5 68 3.7 ESE 24 37 13 20 1017.2 - 0.0
28/05:00am 22.8 20.3 16.2 66 4.0 ESE 24 39 13 21 1017.0 - 0.0
28/04:30am 22.9 20.0 16.1 65 4.1 ESE 26 43 14 23 1017.1 - 0.0
28/04:00am 23.0 20.3 15.5 62 4.5 ESE 24 35 13 19 1017.0 - 0.0
28/03:30am 22.6 19.8 15.4 64 4.3 ESE 24 41 13 22 1016.8 - 0.0
28/03:00am 22.9 20.2 15.7 64 4.3 ESE 24 44 13 24 1017.2 1017.2 0.0
28/02:30am 22.7 21.1 16.4 67 3.8 ESE 20 35 11 19 1017.4 - 0.0
28/02:00am 22.8 19.8 15.8 64 4.2 ESE 26 41 14 22 1017.7 - 0.0
28/01:51am 22.9 19.5 15.7 64 4.3 ESE 28 46 15 25 1017.8 - 0.0
28/01:30am 22.8 20.6 16.0 65 4.1 ESE 22 33 12 18 1018.1 - 0.0
28/01:00am 22.6 20.9 16.3 67 3.8 ESE 20 32 11 17 1018.5 - 0.0
28/12:30am 22.7 21.0 16.3 67 3.9 ESE 20 30 11 16 1018.8 - 0.0
28/12:00am 22.9 21.4 16.7 68 3.8 ESE 20 33 11 18 1019.1 1019.1 0.0
 
Date/Time
EST
Temp
°C
App
Temp
°C
Dew
Point
Rel
Hum
%
Delta-T
°C
Wind Press
QNH
hPa
Press
MSL
hPa
Rain
since 9 am
mm
Dir
 
Spd
km/h
Gust
km/h
Spd
kts
Gust
kts
27/11:30pm 22.9 21.6 16.8 68 3.7 ESE 19 30 10 16 1019.3 - 0.0
27/11:00pm 23.0 21.0 16.4 66 4.0 ESE 22 39 12 21 1019.4 - 0.0
27/10:30pm 22.9 21.8 17.4 71 3.4 ESE 19 35 10 19 1019.8 - 0.0
27/10:00pm 23.2 21.9 16.8 67 3.9 ESE 19 33 10 18 1020.1 - 0.0
27/09:30pm 22.9 21.6 16.7 68 3.8 ESE 19 32 10 17 1020.0 - 0.0
27/09:00pm 23.3 20.6 15.6 62 4.6 ESE 24 39 13 21 1019.9 1019.9 0.0
27/08:30pm 23.0 22.2 18.0 73 3.1 ESE 19 30 10 16 1019.8 - 0.0
27/08:00pm 22.4 22.5 18.4 78 2.5 SE 15 22 8 12 1019.6 - 0.0
27/07:30pm 22.9 22.4 17.9 73 3.1 ESE 17 30 9 16 1019.3 - 0.0
27/07:00pm 22.9 22.7 17.7 72 3.2 SE 15 24 8 13 1018.9 - 0.0
27/06:30pm 22.9 22.4 17.9 73 3.1 ESE 17 26 9 14 1018.7 - 0.0
27/06:00pm 23.4 21.7 17.2 68 3.8 ESE 22 32 12 17 1018.4 1018.3 0.0
27/05:30pm 23.7 23.2 17.8 69 3.7 SE 17 30 9 16 1018.1 - 0.0
27/05:00pm 24.2 23.3 18.3 69 3.7 SE 20 32 11 17 1017.8 - 0.0
27/04:30pm 25.0 23.7 19.0 69 3.8 SE 24 39 13 21 1017.5 - 0.0
27/04:00pm 24.9 22.9 18.2 66 4.2 ESE 26 39 14 21 1017.1 - 0.0
27/03:30pm 25.3 23.4 18.5 66 4.3 ESE 26 43 14 23 1017.1 - 0.0
27/03:06pm 25.2 24.3 19.1 69 3.9 ESE 22 43 12 23 1017.0 - 0.0
27/03:00pm 24.8 24.6 19.8 74 3.2 ESE 20 32 11 17 1017.0 1017.1 0.0
27/02:52pm 24.6 23.8 20.0 75 3.0 SE 24 39 13 21 1017.1 - 0.0
27/02:30pm 24.7 24.3 20.1 75 3.0 ESE 22 35 12 19 1017.3 - 0.0
27/02:00pm 25.3 24.7 19.7 71 3.6 SE 22 35 12 19 1017.5 - 0.0
27/01:47pm 25.5 24.2 19.9 71 3.6 ESE 26 39 14 21 1017.6 - 0.0
27/01:37pm 26.6 26.2 20.2 68 4.2 ESE 22 35 12 19 1017.6 - 0.0
27/01:30pm 25.7 25.7 20.2 71 3.6 ESE 20 32 11 17 1017.8 - 0.0
27/01:00pm 25.1 24.3 19.3 70 3.7 ESE 22 35 12 19 1018.2 - 0.0
27/12:30pm 26.0 24.9 19.5 67 4.2 SE 24 43 13 23 1018.6 - 0.0
27/12:00pm 26.4 25.4 19.6 66 4.4 ESE 24 44 13 24 1018.9 1019.0 0.0
27/11:30am 26.3 24.1 19.6 66 4.3 E 30 44 16 24 1019.2 - 0.0
27/11:17am 25.8 23.4 19.1 66 4.3 ESE 30 46 16 25 1019.3 - 0.0
27/11:00am 26.3 23.6 19.3 65 4.5 E 32 43 17 23 1019.4 - 0.0
27/10:30am 25.1 24.0 20.3 74 3.1 ESE 26 41 14 22 1019.6 - 0.0
27/10:08am 24.3 24.5 20.6 80 2.4 ESE 20 33 11 18 1019.7 - 0.0
27/10:00am 24.2 24.7 20.8 81 2.2 SE 19 33 10 18 1019.7 - 0.0
27/09:52am 23.5 24.3 20.6 84 1.9 SE 17 24 9 13 1019.6 - 0.0
27/09:30am 23.0 23.7 20.4 85 1.7 SE 17 32 9 17 1019.7 - 0.0
27/09:09am 23.1 24.2 21.3 90 1.2 SE 17 26 9 14 1019.7 - 0.0
27/09:01am 22.4 23.7 20.9 91 1.0 SE 15 22 8 12 1019.7 - 0.0
27/09:00am 22.2 23.4 20.7 91 1.0 SE 15 22 8 12 1019.7 1019.7 0.6
27/08:50am 22.4 23.1 20.4 88 1.3 SE 17 24 9 13 1019.6 - 0.4
27/08:30am 22.8 23.6 19.8 83 1.9 SE 15 28 8 15 1019.1 - 0.0
27/08:20am 22.7 23.8 19.7 83 1.9 SE 13 22 7 12 1019.1 - 0.0
27/08:00am 22.5 23.4 20.0 86 1.6 SE 15 24 8 13 1019.1 - 0.0
27/07:30am 22.4 23.3 20.1 87 1.5 SE 15 30 8 16 1018.7 - 0.0
27/07:21am 22.3 23.2 20.1 87 1.4 SE 15 26 8 14 1018.6 - 0.0
27/07:16am 22.3 23.2 20.1 87 1.4 SE 15 26 8 14 1018.6 - 0.0
27/07:03am 22.1 23.4 20.2 89 1.2 SE 13 20 7 11 1018.5 - 0.0
27/07:00am 22.1 23.0 20.1 88 1.3 SE 15 22 8 12 1018.5 - 0.0
27/06:32am 21.8 23.0 19.9 89 1.2 SE 13 22 7 12 1018.4 - 0.0
27/06:30am 21.8 23.0 19.9 89 1.2 SE 13 22 7 12 1018.4 - 0.0
27/06:00am 22.3 23.0 19.6 85 1.7 SE 15 35 8 19 1018.1 1018.1 0.0
27/05:30am 22.2 22.9 19.7 86 1.6 SE 15 24 8 13 1018.0 - 0.0
27/05:26am 22.2 22.9 19.7 86 1.6 SE 15 24 8 13 1017.9 - 0.0
27/05:00am 22.6 23.3 19.6 83 1.9 SE 15 24 8 13 1017.8 - 0.0
27/04:52am 22.5 23.6 19.7 84 1.8 SE 13 26 7 14 1017.8 - 0.0
27/04:34am 22.4 23.6 19.9 86 1.6 SE 13 19 7 10 1017.8 - 0.0
27/04:30am 22.4 23.6 19.9 86 1.6 SE 13 19 7 10 1017.8 - 0.0
27/04:00am 22.4 22.5 19.2 82 2.0 SE 17 28 9 15 1017.7 - 0.0
27/03:30am 22.4 22.9 19.2 82 2.0 SE 15 22 8 12 1017.8 - 0.0
27/03:00am 22.2 22.8 19.5 85 1.7 SE 15 28 8 15 1018.0 1017.9 0.0
27/02:30am 22.0 22.7 19.6 86 1.5 SE 15 24 8 13 1018.3 - 0.0
27/02:00am 21.9 22.5 19.4 86 1.6 SE 15 24 8 13 1018.7 - 0.0
27/01:30am 22.1 23.1 19.4 85 1.7 SE 13 22 7 12 1019.2 - 0.0
27/01:00am 22.3 23.3 19.5 84 1.8 SE 13 24 7 13 1019.5 - 0.0
27/12:30am 22.0 23.1 19.6 86 1.5 SE 13 17 7 9 1019.7 - 0.0
27/12:00am 22.3 23.0 19.6 85 1.7 SE 15 22 8 12 1020.0 1020.0 0.0
 
Date/Time
EST
Temp
°C
App
Temp
°C
Dew
Point
Rel
Hum
%
Delta-T
°C
Wind Press
QNH
hPa
Press
MSL
hPa
Rain
since 9 am
mm
Dir
 
Spd
km/h
Gust
km/h
Spd
kts
Gust
kts
26/11:30pm 22.3 23.0 19.6 85 1.7 SE 15 20 8 11 1020.3 - 0.0
26/11:17pm 22.3 22.6 19.6 85 1.7 SE 17 28 9 15 1020.4 - 0.0
26/11:00pm 22.5 22.5 19.7 84 1.8 SE 19 32 10 17 1020.4 - 0.0
26/10:30pm 22.6 23.9 20.1 86 1.6 SE 13 22 7 12 1020.4 - 0.0
26/10:00pm 22.7 23.9 19.9 84 1.8 SE 13 20 7 11 1020.3 - 0.0
26/09:53pm 22.7 23.8 19.7 83 1.9 ESE 13 20 7 11 1020.3 - 0.0
26/09:30pm 22.6 23.2 19.5 82 2.0 ESE 15 26 8 14 1020.3 - 0.0
26/09:03pm 22.4 23.7 20.1 87 1.5 SE 13 20 7 11 1020.4 - 0.0
26/09:00pm 22.4 23.3 20.1 87 1.5 SE 15 20 8 11 1020.4 1020.4 0.0
26/08:30pm 22.5 23.4 20.0 86 1.6 SE 15 22 8 12 1020.3 - 0.0
26/08:00pm 22.6 23.0 19.9 85 1.7 SE 17 30 9 16 1020.3 - 0.0
26/07:38pm 22.7 23.4 19.7 83 1.9 SE 15 26 8 14 1019.9 - 0.0
26/07:33pm 22.7 23.0 19.7 83 1.9 SE 17 26 9 14 1019.8 - 0.0
26/07:30pm 22.7 23.0 19.7 83 1.9 SE 17 26 9 14 1019.8 - 0.0
26/07:00pm 22.8 22.8 19.7 83 2.0 SE 19 32 10 17 1019.5 - 0.0
26/06:47pm 22.7 22.5 19.7 83 1.9 SE 20 32 11 17 1019.5 - 0.0
26/06:30pm 22.8 22.6 19.3 80 2.2 SE 19 30 10 16 1019.4 - 0.0
26/06:00pm 23.1 22.6 19.0 78 2.6 SE 20 30 11 16 1019.2 1019.2 0.0
26/05:30pm 23.5 22.4 18.7 74 3.0 SE 22 41 12 22 1019.2 - 0.0
26/05:00pm 23.9 23.4 19.2 75 3.0 SE 20 32 11 17 1019.1 - 0.0
26/04:30pm 24.5 24.0 19.2 72 3.4 SE 20 35 11 19 1018.8 - 0.0
26/04:00pm 24.5 22.8 19.0 71 3.5 SE 26 46 14 25 1018.5 - 0.0
26/03:51pm 24.4 22.1 18.5 69 3.7 ESE 28 46 15 25 1018.5 - 0.0
26/03:30pm 24.8 22.9 18.5 68 4.0 SE 26 41 14 22 1018.5 - 0.0
26/03:00pm 24.9 23.0 18.6 68 4.0 SE 26 39 14 21 1018.6 1018.6 0.0
26/02:40pm 25.3 23.0 18.5 66 4.3 ESE 28 50 15 27 1018.7 - 0.0
26/02:30pm 25.6 25.0 18.8 66 4.3 SE 20 39 11 21 1018.8 - 0.0
26/02:00pm 24.4 22.1 18.5 69 3.7 SE 28 46 15 25 1019.1 - 0.0
26/01:43pm 24.5 21.3 18.1 67 4.0 ESE 32 50 17 27 1019.2 - 0.0
26/01:30pm 26.0 23.6 18.2 62 4.9 SE 28 39 15 21 1019.3 - 0.0
26/01:00pm 26.1 24.9 18.5 63 4.8 SE 22 37 12 20 1019.6 - 0.0
26/12:30pm 25.7 23.7 18.3 63 4.7 SE 26 48 14 26 1019.8 - 0.0
26/12:00pm 25.2 23.1 18.9 68 4.0 SE 28 46 15 25 1020.2 1020.3 0.0
26/11:52am 25.4 23.2 18.8 67 4.2 ESE 28 46 15 25 1020.2 - 0.0
26/11:30am 24.5 23.0 18.6 69 3.7 SE 24 43 13 23 1020.6 - 0.0
26/11:00am 24.9 22.7 18.6 68 4.0 SE 28 46 15 25 1020.8 - 0.0
26/10:30am 24.4 23.0 18.9 71 3.5 ESE 24 39 13 21 1020.9 - 0.0
26/10:00am 24.7 23.2 18.5 68 3.9 SE 24 41 13 22 1021.2 - 0.0
26/09:30am 24.5 24.0 18.6 69 3.7 SE 19 32 10 17 1021.1 - 0.0
26/09:00am 24.1 25.4 18.4 70 3.6 ESE 9 28 5 15 1021.1 1021.0 0.0
26/08:30am 22.7 24.5 18.4 76 2.7 SSE 6 9 3 5 1020.6 - 0.0
26/08:00am 21.6 23.2 18.2 81 2.1 S 7 11 4 6 1020.3 - 0.0
26/07:30am 20.5 22.3 18.2 87 1.4 S 6 7 3 4 1020.3 - 0.0
26/07:00am 20.1 21.8 18.5 90 1.0 SSE 7 15 4 8 1020.3 - 0.0
26/06:30am 20.0 23.2 18.9 93 0.7 CALM 0 0 0 0 1020.1 - 0.0
26/06:00am 20.7 22.2 18.9 89 1.1 SE 9 11 5 6 1019.8 1019.7 0.0
26/05:30am 21.1 22.3 19.0 88 1.3 SSE 11 20 6 11 1019.6 - 0.0
26/05:00am 21.0 22.6 19.1 89 1.2 SE 9 17 5 9 1019.3 - 0.0
26/04:30am 21.2 22.7 19.0 87 1.4 SE 9 17 5 9 1019.4 - 0.0
26/04:00am 21.5 23.0 18.8 84 1.7 SE 9 15 5 8 1019.4 - 0.0
26/03:37am 22.0 22.6 18.7 81 2.1 SE 13 22 7 12 1019.3 - 0.0
26/03:30am 22.1 22.0 18.8 81 2.1 SE 17 32 9 17 1019.3 - 0.0
26/03:25am 22.3 22.5 18.6 79 2.3 SE 15 32 8 17 1019.3 - 0.0
26/03:00am 22.3 23.4 18.8 80 2.2 SE 11 15 6 8 1019.4 1019.4 0.0
26/02:30am 22.1 23.6 18.8 81 2.1 SE 9 13 5 7 1019.5 - 0.0

Other Formats:

Comma delimited format used in spreadsheet applications
http://www.bom.gov.au/fwo/IDQ60801/IDQ60801.95283.axf

JavaScript Object Notation format (JSON) in row-major order
http://www.bom.gov.au/fwo/IDQ60801/IDQ60801.95283.json